Time;durP1;ratioP1;P1;durP2;ratioP2;P2;SDS_P1;SDS_P2;PMS_P1;PMS_P2;Temp;Humidity;BMP_temperature;BMP_pressure;BME280_temperature;BME280_humidity;BME280_pressure;Samples;Min_cycle;Max_cycle;Signal;HPM_P1;HPM_P2
2021/12/29 00:10:03;;;;;;;24.40;14.40;;;;;;;-5.12;82.54;98314.77;433162;1313;143174;-63
2021/12/29 00:20:12;;;;;;;23.00;15.00;;;;;;;-5.20;82.66;98309.64;422111;1313;185272;-62
2021/12/29 00:30:18;;;;;;;20.80;13.20;;;;;;;-5.28;82.86;98314.05;424607;1313;142963;-63
2021/12/29 00:40:22;;;;;;;;;;;;;;;-5.26;82.95;98318.61;434305;1313;143927;-63
2021/12/29 00:50:28;;;;;;;23.00;11.50;;;;;;;-5.27;82.85;98305.16;432304;1313;129123;-63
2021/12/29 01:00:37;;;;;;;17.60;11.80;;;;;;;-5.37;82.72;98309.79;426246;1316;143225;-64
2021/12/29 01:10:43;;;;;;;24.20;15.70;;;;;;;-5.52;82.95;98294.73;434640;1312;142657;-63
2021/12/29 01:20:47;;;;;;;;;;;;;;;-5.51;83.07;98278.36;433398;1312;143183;-62
2021/12/29 01:30:53;;;;;;;19.30;13.80;;;;;;;-5.54;83.06;98263.08;432931;1313;128988;-63
2021/12/29 01:40:57;;;;;;;;;;;;;;;-5.64;82.94;98255.93;428426;1312;143347;-61
2021/12/29 01:51:03;;;;;;;23.00;15.30;;;;;;;-5.80;83.05;98254.17;428127;1312;129806;-63
2021/12/29 02:01:08;;;;;;;;;;;;;;;-5.93;83.14;98260.55;434226;1312;142931;-62
2021/12/29 02:11:14;;;;;;;21.20;13.90;;;;;;;-5.99;83.28;98270.39;434804;1313;128848;-63
2021/12/29 02:21:20;;;;;;;22.50;14.10;;;;;;;-5.96;83.38;98276.98;433864;1311;143253;-63
2021/12/29 02:31:27;;;;;;;22.30;14.00;;;;;;;-5.82;83.40;98273.48;422863;1313;143631;-62
2021/12/29 02:41:32;;;;;;;21.80;14.30;;;;;;;-5.69;83.28;98268.98;431875;1311;143518;-61
2021/12/29 02:51:38;;;;;;;20.80;13.40;;;;;;;-5.58;83.33;98274.05;434079;1311;142770;-62
2021/12/29 03:01:43;;;;;;;;;;;;;;;-5.48;83.22;98277.44;434439;1312;142602;-62
2021/12/29 03:11:49;;;;;;;18.90;13.40;;;;;;;-5.39;83.17;98277.95;434777;1313;128174;-62
2021/12/29 03:21:54;;;;;;;23.30;14.20;;;;;;;-5.32;83.12;98278.83;422604;1311;147110;-61
2021/12/29 03:32:06;;;;;;;22.60;13.50;;;;;;;-5.28;83.08;98276.36;425957;1312;142167;-62
2021/12/29 03:42:12;;;;;;;20.20;14.30;;;;;;;-5.28;83.01;98276.68;433665;1311;144228;-62
2021/12/29 03:52:18;;;;;;;24.10;13.30;;;;;;;-5.22;83.11;98273.17;434767;1311;143678;-62
2021/12/29 04:02:24;;;;;;;22.40;13.70;;;;;;;-5.15;83.27;98274.90;430097;1313;142373;-61
2021/12/29 04:12:28;;;;;;;;;;;;;;;-5.11;83.17;98287.77;418432;1311;143893;-62
2021/12/29 04:22:34;;;;;;;23.30;14.80;;;;;;;-5.07;83.27;98295.72;418758;1312;128436;-61
2021/12/29 04:32:40;;;;;;;22.90;14.90;;;;;;;-5.03;83.42;98293.23;432361;1309;143177;-65
2021/12/29 04:42:46;;;;;;;21.40;14.60;;;;;;;-4.96;83.44;98297.88;433939;1311;144267;-61
2021/12/29 04:52:52;;;;;;;23.90;13.80;;;;;;;-4.89;83.40;98291.58;434273;1313;142088;-62
2021/12/29 05:02:58;;;;;;;;;;;;;;;-4.83;83.21;98309.17;434073;1309;160373;-62
2021/12/29 05:13:04;;;;;;;21.80;14.20;;;;;;;-4.81;83.26;98316.98;433666;1310;128191;-62
2021/12/29 05:23:10;;;;;;;;;;;;;;;-4.77;83.42;98329.90;434752;1311;182529;-62
2021/12/29 05:33:16;;;;;;;21.00;14.50;;;;;;;-4.73;83.65;98330.83;425839;1310;129309;-62
2021/12/29 05:43:22;;;;;;;25.10;16.30;;;;;;;-4.73;83.74;98329.63;418071;1312;144040;-61
2021/12/29 05:53:28;;;;;;;26.30;16.00;;;;;;;-4.77;84.09;98334.85;418037;1311;141791;-61
2021/12/29 06:03:34;;;;;;;24.20;15.60;;;;;;;-4.76;84.22;98332.96;417899;1311;142676;-61
2021/12/29 06:13:40;;;;;;;24.50;14.80;;;;;;;-4.77;84.45;98347.32;430943;1310;142772;-62
2021/12/29 06:23:47;;;;;;;27.60;17.00;;;;;;;-4.73;84.66;98353.21;434448;1313;142215;-62
2021/12/29 06:33:53;;;;;;;22.60;15.20;;;;;;;-4.66;84.65;98353.40;430419;1312;143119;-63
2021/12/29 06:43:59;;;;;;;26.30;16.20;;;;;;;-4.58;84.78;98359.20;434528;1313;142268;-62
2021/12/29 06:54:05;;;;;;;20.40;13.60;;;;;;;-4.54;84.95;98368.84;420210;1311;142014;-60
2021/12/29 07:04:11;;;;;;;24.80;17.30;;;;;;;-4.52;84.94;98375.63;434686;1310;143670;-62
2021/12/29 07:14:19;;;;;;;26.90;18.10;;;;;;;-4.46;85.19;98379.60;420352;1311;143190;-62
2021/12/29 07:24:25;;;;;;;31.30;18.50;;;;;;;-4.43;85.27;98392.69;432876;1311;142973;-63
2021/12/29 07:34:31;;;;;;;33.30;20.70;;;;;;;-4.33;85.41;98402.89;434551;1311;142949;-63
2021/12/29 07:44:39;;;;;;;30.90;20.00;;;;;;;-4.26;85.31;98405.83;428686;1313;144487;-61
2021/12/29 07:54:45;;;;;;;34.00;20.40;;;;;;;-4.13;85.38;98399.02;433699;1312;143021;-51
2021/12/29 08:04:50;;;;;;;32.70;17.60;;;;;;;-3.91;85.56;98415.42;434414;1312;142620;-54
2021/12/29 08:15:17;;;;;;;30.80;23.60;;;;;;;-3.77;85.27;98426.91;433926;1311;143235;-54
2021/12/29 08:25:28;;;;;;;34.40;22.20;;;;;;;-3.79;85.43;98442.69;434704;1311;142284;-53
2021/12/29 08:35:34;;;;;;;39.50;24.60;;;;;;;-3.81;85.48;98443.40;433358;1313;143550;-70
2021/12/29 08:45:42;;;;;;;37.90;25.70;;;;;;;-3.77;85.81;98456.14;433912;1311;142958;-61
2021/12/29 08:55:50;;;;;;;36.50;22.80;;;;;;;-3.67;85.89;98477.46;432893;1312;143474;-69
2021/12/29 09:05:57;;;;;;;38.10;23.80;;;;;;;-3.57;85.83;98472.27;432121;1309;142770;-73
2021/12/29 09:16:01;;;;;;;;;;;;;;;-3.48;85.86;98459.73;433251;1308;142773;-62
2021/12/29 09:26:08;;;;;;;40.60;24.20;;;;;;;-3.36;85.87;98441.44;434732;1313;128500;-64
2021/12/29 09:36:15;;;;;;;39.30;24.50;;;;;;;-3.22;85.88;98450.17;432676;1311;142618;-65
2021/12/29 09:46:21;;;;;;;43.80;27.00;;;;;;;-3.08;85.76;98478.39;427981;1309;142611;-67
2021/12/29 09:56:27;;;;;;;46.40;31.70;;;;;;;-3.05;85.59;98486.86;434522;1311;143628;-73
2021/12/29 10:06:33;;;;;;;31.10;20.60;;;;;;;-2.94;85.74;98485.55;432785;1311;143305;-69
2021/12/29 10:16:40;;;;;;;43.30;29.00;;;;;;;-2.85;85.60;98477.98;434772;1311;141910;-62
2021/12/29 10:26:48;;;;;;;46.60;28.60;;;;;;;-2.72;85.45;98476.58;434728;1310;142600;-66
2021/12/29 10:36:56;;;;;;;48.40;31.40;;;;;;;-2.67;85.38;98476.45;429007;1309;141877;-77
2021/12/29 10:47:13;;;;;;;43.90;30.10;;;;;;;-2.55;85.49;98480.57;419585;1311;142537;-68
2021/12/29 10:57:20;;;;;;;51.90;33.10;;;;;;;-2.41;85.30;98487.19;423609;1313;145137;-67
2021/12/29 11:07:31;;;;;;;35.80;23.30;;;;;;;-2.27;85.28;98482.15;433136;1313;144444;-64
2021/12/29 11:17:39;;;;;;;46.50;31.20;;;;;;;-2.16;85.10;98477.21;434545;1308;141813;-64
2021/12/29 11:27:47;;;;;;;53.70;32.40;;;;;;;-1.98;84.94;98475.83;432645;1311;143347;-64
2021/12/29 11:37:55;;;;;;;57.20;33.50;;;;;;;-1.97;85.01;98478.52;429718;1309;142443;-67
2021/12/29 11:48:02;;;;;;;53.20;31.80;;;;;;;-1.92;84.94;98491.06;422625;1311;144243;-64
2021/12/29 11:58:14;;;;;;;55.50;36.50;;;;;;;-1.61;84.94;98493.04;434395;1313;215006;-67
2021/12/29 12:08:24;;;;;;;48.30;31.60;;;;;;;-1.43;84.69;98499.48;433445;1311;142846;-66
2021/12/29 12:29:14;;;;;;;56.10;34.20;;;;;;;-1.23;84.21;98499.69;408911;1343;599765;-68
2021/12/29 12:39:22;;;;;;;56.60;35.30;;;;;;;-1.12;84.21;98487.50;420671;1320;140988;-70
2021/12/29 12:49:30;;;;;;;57.60;38.80;;;;;;;-1.05;84.06;98487.45;423703;1317;141744;-72
2021/12/29 12:59:42;;;;;;;61.90;39.10;;;;;;;-1.07;83.84;98505.34;424366;1320;142035;-66
2021/12/29 13:09:50;;;;;;;61.30;37.20;;;;;;;-1.11;83.90;98509.61;426408;1322;141042;-68
2021/12/29 13:19:56;;;;;;;57.90;37.50;;;;;;;-1.01;84.13;98528.86;427089;1313;142117;-66
2021/12/29 13:30:04;;;;;;;62.60;38.00;;;;;;;-1.03;84.07;98543.73;433349;1313;141147;-64
2021/12/29 13:40:13;;;;;;;68.90;42.00;;;;;;;-1.03;83.90;98561.05;431594;1313;140290;-74
2021/12/29 13:50:20;;;;;;;69.40;40.60;;;;;;;-1.09;84.04;98568.13;434330;1313;143979;-71
2021/12/29 14:00:27;;;;;;;66.60;41.20;;;;;;;-1.06;84.14;98578.34;432228;1314;141118;-67
2021/12/29 14:10:33;;;;;;;63.10;42.00;;;;;;;-1.00;84.16;98583.11;432890;1314;141938;-72
2021/12/29 14:20:39;;;;;;;71.60;44.20;;;;;;;-1.04;84.17;98596.82;434394;1313;141192;-72
2021/12/29 14:30:56;;;;;;;76.00;46.20;;;;;;;-1.09;84.12;98614.01;431688;1315;141200;-68
2021/12/29 14:41:03;;;;;;;80.00;51.20;;;;;;;-1.09;84.51;98627.55;434340;1313;150859;-69
2021/12/29 14:51:10;;;;;;;71.30;45.00;;;;;;;-1.07;84.58;98642.95;432239;1313;142283;-68
2021/12/29 15:01:20;;;;;;;75.70;47.20;;;;;;;-1.04;84.77;98651.45;432641;1313;141300;-67
2021/12/29 15:11:28;;;;;;;76.20;46.20;;;;;;;-0.98;84.61;98662.77;432596;1313;144263;-66
2021/12/29 15:21:34;;;;;;;69.40;45.80;;;;;;;-0.91;84.63;98673.40;433456;1313;142029;-66
2021/12/29 15:31:40;;;;;;;70.00;49.20;;;;;;;-0.88;84.95;98666.57;431917;1314;141867;-74
2021/12/29 15:41:46;;;;;;;72.90;44.10;;;;;;;-0.83;85.03;98672.24;434255;1313;140861;-67
2021/12/29 15:51:53;;;;;;;72.80;44.30;;;;;;;-0.77;85.08;98671.73;432147;1313;142746;-63
2021/12/29 16:02:01;;;;;;;73.20;46.90;;;;;;;-0.76;85.28;98685.77;418210;1312;141650;-69
2021/12/29 16:12:09;;;;;;;78.60;47.90;;;;;;;-0.74;85.47;98692.58;420158;1312;141287;-63
2021/12/29 16:22:18;;;;;;;79.70;48.20;;;;;;;-0.71;85.68;98702.81;434342;1312;141527;-63
2021/12/29 16:32:25;;;;;;;83.60;53.10;;;;;;;-0.64;85.72;98718.07;428524;1313;141023;-63
2021/12/29 16:42:31;;;;;;;83.50;53.70;;;;;;;-0.56;85.98;98727.09;432277;1311;141923;-63
2021/12/29 16:52:36;;;;;;;103.70;68.70;;;;;;;-0.46;85.97;98737.42;433177;1315;141702;-62
2021/12/29 17:02:43;;;;;;;99.60;63.60;;;;;;;-0.41;85.68;98738.84;433003;1313;142469;-64
2021/12/29 17:12:49;;;;;;;89.20;62.30;;;;;;;-0.34;86.14;98750.65;432973;1312;143217;-64
2021/12/29 17:22:55;;;;;;;94.10;65.40;;;;;;;-0.24;85.73;98755.65;428707;1314;142353;-60
2021/12/29 17:33:06;;;;;;;98.40;68.90;;;;;;;-0.15;85.78;98772.21;427551;1310;142306;-61
2021/12/29 17:43:12;;;;;;;106.00;68.40;;;;;;;-0.05;85.78;98776.70;431539;1315;142051;-64
2021/12/29 17:53:18;;;;;;;103.20;67.30;;;;;;;0.00;85.69;98780.48;428668;1315;141253;-67
2021/12/29 18:03:24;;;;;;;107.70;70.10;;;;;;;0.05;85.92;98795.80;417232;1312;142734;-68
2021/12/29 18:13:31;;;;;;;110.40;72.50;;;;;;;0.05;85.94;98808.70;419884;1315;141240;-70
2021/12/29 18:23:36;;;;;;;122.00;78.10;;;;;;;0.04;85.97;98811.67;433191;1310;141981;-69
2021/12/29 18:33:42;;;;;;;121.50;78.50;;;;;;;0.09;86.02;98820.95;433498;1310;141885;-69
2021/12/29 18:43:50;;;;;;;124.40;81.20;;;;;;;0.22;86.18;98818.65;434515;1314;141855;-71
2021/12/29 18:53:56;;;;;;;114.50;75.70;;;;;;;0.29;86.02;98813.75;434299;1313;141549;-71
2021/12/29 19:04:02;;;;;;;96.40;61.10;;;;;;;0.32;86.34;98819.00;432397;1310;143136;-71
2021/12/29 19:14:08;;;;;;;88.70;60.70;;;;;;;0.39;86.53;98816.67;434394;1315;142699;-70
2021/12/29 19:24:14;;;;;;;80.50;54.90;;;;;;;0.48;86.79;98814.15;431407;1313;141580;-71
2021/12/29 19:34:19;;;;;;;81.30;49.60;;;;;;;0.58;87.28;98818.27;434476;1313;141399;-71
2021/12/29 19:44:26;;;;;;;74.40;49.00;;;;;;;0.65;87.43;98819.04;434359;1315;140722;-71
2021/12/29 19:54:32;;;;;;;73.80;46.10;;;;;;;0.73;87.37;98819.46;430901;1315;141680;-71
2021/12/29 20:04:38;;;;;;;71.10;45.20;;;;;;;0.82;87.54;98814.17;427385;1306;141771;-71
2021/12/29 20:14:44;;;;;;;84.20;50.60;;;;;;;0.86;87.63;98825.21;431798;1313;141484;-71
2021/12/29 20:24:50;;;;;;;80.20;48.80;;;;;;;0.88;87.62;98839.98;433329;1315;140874;-75
2021/12/29 20:34:56;;;;;;;84.50;50.00;;;;;;;0.91;87.98;98840.52;430735;1310;140935;-72
2021/12/29 20:45:03;;;;;;;82.10;45.90;;;;;;;0.94;88.08;98848.19;426833;1314;141464;-68
2021/12/29 20:55:12;;;;;;;73.60;42.10;;;;;;;0.96;88.31;98835.88;432931;1314;140850;-70
2021/12/29 21:05:18;;;;;;;83.90;45.20;;;;;;;0.97;88.36;98835.83;427001;1315;140964;-69
2021/12/29 21:15:27;;;;;;;74.30;40.30;;;;;;;1.00;88.44;98847.45;433392;1315;141723;-71
2021/12/29 21:25:33;;;;;;;67.90;36.80;;;;;;;1.05;88.67;98855.35;434238;1315;140942;-71
2021/12/29 21:35:40;;;;;;;58.40;36.90;;;;;;;1.12;88.70;98859.77;434327;1314;142050;-71
2021/12/29 21:45:45;;;;;;;75.10;42.00;;;;;;;1.21;88.70;98870.64;430596;1313;142035;-71
2021/12/29 21:55:52;;;;;;;61.00;36.50;;;;;;;1.27;88.75;98866.98;433642;1312;142009;-71
2021/12/29 22:05:57;;;;;;;54.60;34.70;;;;;;;1.31;88.73;98879.27;435085;1308;142541;-71
2021/12/29 22:16:06;;;;;;;68.20;38.10;;;;;;;1.39;88.64;98891.17;427240;1312;141737;-71
2021/12/29 22:26:12;;;;;;;59.20;38.20;;;;;;;1.42;88.66;98883.33;432963;1312;141781;-70
2021/12/29 22:36:18;;;;;;;52.60;36.90;;;;;;;1.42;88.62;98898.16;424894;1312;142738;-72
2021/12/29 22:46:25;;;;;;;54.60;34.80;;;;;;;1.50;88.61;98895.98;421284;1312;141244;-71
2021/12/29 22:56:32;;;;;;;50.30;33.30;;;;;;;1.50;88.52;98894.91;425817;1312;140670;-72
2021/12/29 23:06:37;;;;;;;56.90;37.90;;;;;;;1.53;88.73;98904.30;433674;1312;141032;-70
2021/12/29 23:16:44;;;;;;;49.90;34.90;;;;;;;1.54;88.68;98911.34;428691;1312;142043;-70
2021/12/29 23:37:16;;;;;;;38.40;27.90;;;;;;;1.48;88.48;98930.36;434776;1312;141262;-70
2021/12/29 23:47:21;;;;;;;40.60;27.50;;;;;;;1.48;88.44;98932.78;420281;1312;142194;-71
2021/12/29 23:57:27;;;;;;;43.60;30.50;;;;;;;1.48;88.56;98940.54;432351;1307;141648;-70
